createdAt,value
2019-04-27T00:02:00.115Z,14.50
2019-04-27T00:04:52.864Z,15.57
2019-04-27T00:07:24.136Z,16.73
2019-04-27T00:09:58.833Z,16.60
2019-04-27T00:12:29.605Z,16.00
2019-04-27T00:15:00.112Z,16.10
2019-04-27T00:17:49.595Z,16.40
2019-04-27T00:20:36.526Z,17.73
2019-04-27T00:23:11.392Z,20.47
2019-04-27T00:25:41.784Z,17.10
2019-04-27T00:28:12.897Z,16.77
2019-04-27T00:30:43.890Z,19.63
2019-04-27T00:33:14.257Z,19.47
2019-04-27T00:35:46.318Z,21.57
2019-04-27T00:38:24.382Z,20.10
2019-04-27T00:40:56.696Z,17.50
2019-04-27T00:43:27.221Z,14.60
2019-04-27T00:45:57.788Z,16.47
2019-04-27T00:48:28.097Z,15.80
2019-04-27T00:50:58.393Z,19.10
2019-04-27T00:53:28.749Z,16.27
2019-04-27T00:56:09.912Z,15.97
2019-04-27T00:58:53.767Z,17.27
2019-04-27T01:01:33.278Z,16.37
2019-04-27T01:04:05.593Z,17.80
2019-04-27T01:06:36.121Z,17.80
2019-04-27T01:09:08.288Z,17.17
2019-04-27T01:11:38.720Z,19.23
2019-04-27T01:14:09.233Z,17.27
2019-04-27T01:16:39.695Z,18.80
2019-04-27T01:19:10.492Z,18.93
2019-04-27T01:21:40.963Z,16.70
2019-04-27T01:24:11.710Z,18.50
2019-04-27T01:26:53.073Z,17.00
2019-04-27T01:29:24.993Z,18.90
2019-04-27T01:31:55.807Z,19.57
2019-04-27T01:34:26.265Z,17.23
2019-04-27T01:36:56.497Z,17.63
2019-04-27T01:39:28.814Z,17.43
2019-04-27T01:41:59.183Z,16.03
2019-04-27T01:44:29.743Z,21.17
2019-04-27T01:47:00.302Z,19.23
2019-04-27T01:49:30.646Z,16.90
2019-04-27T01:52:01.017Z,15.53
2019-04-27T01:54:31.412Z,19.50
2019-04-27T01:57:04.149Z,16.80
2019-04-27T01:59:33.928Z,18.50
2019-04-27T02:02:19.053Z,16.30
2019-04-27T02:05:08.969Z,21.20
2019-04-27T02:07:40.417Z,17.07
2019-04-27T02:10:11.645Z,18.03
2019-04-27T02:12:43.884Z,18.83
2019-04-27T02:15:14.497Z,16.60
2019-04-27T02:17:45.101Z,16.20
2019-04-27T02:20:16.024Z,16.90
2019-04-27T02:22:46.664Z,20.17
2019-04-27T02:25:18.965Z,15.37
2019-04-27T02:27:51.093Z,19.10
2019-04-27T02:30:30.641Z,17.07
2019-04-27T02:33:14.861Z,18.20
2019-04-27T02:35:45.421Z,18.93
2019-04-27T02:38:15.988Z,15.70
2019-04-27T02:40:51.733Z,18.97
2019-04-27T02:43:24.998Z,19.93
2019-04-27T02:45:55.565Z,17.73
2019-04-27T02:48:26.141Z,15.83
2019-04-27T02:51:01.403Z,21.07
2019-04-27T02:53:51.438Z,17.43
2019-04-27T02:56:21.972Z,18.17
2019-04-27T02:58:53.023Z,17.97
2019-04-27T03:01:25.333Z,16.80
2019-04-27T03:03:57.870Z,19.73
2019-04-27T03:06:30.128Z,17.73
2019-04-27T03:09:00.946Z,16.93
2019-04-27T03:11:32.029Z,18.37
2019-04-27T03:14:29.434Z,17.87
2019-04-27T03:17:00.293Z,17.33
2019-04-27T03:19:49.493Z,16.20
2019-04-27T03:22:25.091Z,18.90
2019-04-27T03:25:10.664Z,17.43
2019-04-27T03:27:50.235Z,19.77
2019-04-27T03:30:22.870Z,15.67
2019-04-27T03:32:56.970Z,18.00
2019-04-27T03:35:25.557Z,16.67
2019-04-27T03:37:56.287Z,20.03
2019-04-27T03:40:26.929Z,16.37
2019-04-27T03:42:59.635Z,15.70
2019-04-27T03:45:30.241Z,18.93
2019-04-27T03:48:00.772Z,16.90
2019-04-27T03:50:32.817Z,16.77
2019-04-27T03:53:04.824Z,16.50
2019-04-27T03:55:39.696Z,16.63
2019-04-27T03:58:13.920Z,17.93
2019-04-27T04:00:44.562Z,18.23
2019-04-27T04:03:14.912Z,18.50
2019-04-27T04:05:45.279Z,19.47
2019-04-27T04:08:15.641Z,15.87
2019-04-27T04:10:49.538Z,18.97
2019-04-27T04:13:36.640Z,17.97
2019-04-27T04:16:24.928Z,19.73
2019-04-27T04:18:56.687Z,20.63
2019-04-27T04:21:29.557Z,18.77
2019-04-27T04:24:00.820Z,17.67
2019-04-27T04:26:32.925Z,16.10
2019-04-27T04:29:03.986Z,17.70
2019-04-27T04:31:34.414Z,15.90
2019-04-27T04:34:05.171Z,20.17
2019-04-27T04:36:35.511Z,16.20
2019-04-27T04:39:11.954Z,18.70
2019-04-27T04:41:43.674Z,17.70
2019-04-27T04:44:15.518Z,16.87
2019-04-27T04:46:50.670Z,17.00
2019-04-27T04:49:20.932Z,15.27
2019-04-27T04:51:51.613Z,14.90
2019-04-27T04:54:24.587Z,14.90
2019-04-27T04:56:53.901Z,17.23
2019-04-27T04:59:24.509Z,15.67
2019-04-27T05:01:55.093Z,14.87
2019-04-27T05:04:25.505Z,18.27
2019-04-27T05:06:55.725Z,17.17
2019-04-27T05:09:26.245Z,15.13
2019-04-27T05:11:56.668Z,16.97
2019-04-27T05:14:28.914Z,14.00
2019-04-27T05:16:59.541Z,16.23
2019-04-27T05:19:30.880Z,15.10
2019-04-27T05:22:01.463Z,14.43
2019-04-27T05:24:31.864Z,16.13
2019-04-27T05:27:02.116Z,16.13
2019-04-27T05:29:32.432Z,14.40
2019-04-27T05:32:02.945Z,13.83
2019-04-27T05:34:33.237Z,14.33
2019-04-27T05:37:03.536Z,12.93
2019-04-27T05:39:33.933Z,14.73
2019-04-27T05:42:04.513Z,15.03
2019-04-27T05:45:00.304Z,15.47
2019-04-27T05:47:35.016Z,15.77
2019-04-27T05:50:09.061Z,14.03
2019-04-27T05:52:40.987Z,15.83
2019-04-27T05:55:11.681Z,16.23
2019-04-27T05:57:41.970Z,14.60
2019-04-27T06:00:15.337Z,15.53
2019-04-27T06:02:45.661Z,13.83
2019-04-27T06:05:16.385Z,13.17
2019-04-27T06:07:48.579Z,13.30
2019-04-27T06:10:19.810Z,12.77
2019-04-27T06:12:50.400Z,12.13
2019-04-27T06:15:20.997Z,12.33
2019-04-27T06:17:51.501Z,13.20
2019-04-27T06:20:21.821Z,11.93
2019-04-27T06:22:52.347Z,12.37
2019-04-27T06:25:22.694Z,13.50
2019-04-27T06:27:53.210Z,16.87
2019-04-27T06:30:23.679Z,16.17
2019-04-27T06:32:54.083Z,10.93
2019-04-27T06:35:24.718Z,12.40
2019-04-27T06:37:55.394Z,14.30
2019-04-27T06:40:25.904Z,11.13
2019-04-27T06:42:56.400Z,13.17
2019-04-27T06:45:28.494Z,11.40
2019-04-27T06:47:59.586Z,13.10
2019-04-27T06:50:30.120Z,13.73
2019-04-27T06:53:00.781Z,11.50
2019-04-27T06:55:31.160Z,12.00
2019-04-27T06:58:01.468Z,13.17
2019-04-27T07:00:32.125Z,14.47
2019-04-27T07:03:02.555Z,12.93
2019-04-27T07:05:33.044Z,13.20
2019-04-27T07:08:03.692Z,11.03
2019-04-27T07:10:34.201Z,12.20
2019-04-27T07:13:04.833Z,11.37
2019-04-27T07:15:35.681Z,11.80
2019-04-27T07:18:06.305Z,14.13
2019-04-27T07:20:38.749Z,10.07
2019-04-27T07:23:09.526Z,13.67
2019-04-27T07:25:40.006Z,13.70
2019-04-27T07:28:10.292Z,12.37
2019-04-27T07:30:40.710Z,15.93
2019-04-27T07:33:11.218Z,12.63
2019-04-27T07:35:41.824Z,11.23
2019-04-27T07:38:12.481Z,15.10
2019-04-27T07:40:42.785Z,10.63
2019-04-27T07:43:14.721Z,10.77
2019-04-27T07:45:44.954Z,10.90
2019-04-27T07:48:15.433Z,11.33
2019-04-27T07:50:45.795Z,10.60
2019-04-27T07:53:16.301Z,10.57
2019-04-27T07:55:46.785Z,11.67
2019-04-27T07:58:17.214Z,14.10
2019-04-27T08:00:49.199Z,13.07
2019-04-27T08:03:19.732Z,11.27
2019-04-27T08:05:50.166Z,11.90
2019-04-27T08:08:20.841Z,12.03
2019-04-27T08:10:51.172Z,12.10
2019-04-27T08:13:21.692Z,12.73
2019-04-27T08:15:52.181Z,14.13
2019-04-27T08:18:22.693Z,11.30
2019-04-27T08:20:53.204Z,12.83
2019-04-27T08:23:23.803Z,14.37
2019-04-27T08:25:54.477Z,11.43
2019-04-27T08:28:29.701Z,10.93
2019-04-27T08:31:13.630Z,14.43
2019-04-27T08:33:44.226Z,14.70
2019-04-27T08:36:14.836Z,12.73
2019-04-27T08:38:45.223Z,11.47
2019-04-27T08:41:15.724Z,11.47
2019-04-27T08:43:46.014Z,10.53
2019-04-27T08:46:16.413Z,11.63
2019-04-27T08:48:46.904Z,11.20
2019-04-27T08:51:17.414Z,10.93
2019-04-27T08:53:47.699Z,13.27
2019-04-27T08:56:19.396Z,11.33
2019-04-27T08:58:49.832Z,13.60
2019-04-27T09:01:20.759Z,15.33
2019-04-27T09:03:51.224Z,11.07
2019-04-27T09:06:21.750Z,10.03
2019-04-27T09:08:53.890Z,10.93
2019-04-27T09:11:44.451Z,12.97
2019-04-27T09:14:16.589Z,11.60
2019-04-27T09:16:59.645Z,12.10
2019-04-27T09:19:40.644Z,11.47
2019-04-27T09:22:15.976Z,13.53
2019-04-27T09:24:43.083Z,11.93
2019-04-27T09:27:13.374Z,13.57
2019-04-27T09:29:43.961Z,13.77
2019-04-27T09:32:14.329Z,11.03
2019-04-27T09:34:46.481Z,11.33
2019-04-27T09:37:17.193Z,10.87
2019-04-27T09:39:47.593Z,11.63
2019-04-27T09:42:18.079Z,11.10
2019-04-27T09:44:48.602Z,8.33
2019-04-27T09:47:19.245Z,14.87
2019-04-27T09:49:49.661Z,14.67
2019-04-27T09:52:26.225Z,11.33
2019-04-27T09:54:51.915Z,13.70
2019-04-27T09:57:22.429Z,12.17
2019-04-27T09:59:52.905Z,12.30
2019-04-27T10:02:23.205Z,11.13
2019-04-27T10:04:53.446Z,10.40
2019-04-27T10:07:23.689Z,10.23
2019-04-27T10:09:53.913Z,11.33
2019-04-27T10:12:26.087Z,12.07
2019-04-27T10:14:56.808Z,11.23
2019-04-27T10:17:27.101Z,13.50
2019-04-27T10:19:57.533Z,14.60
2019-04-27T10:22:40.474Z,12.63
2019-04-27T10:25:00.114Z,14.10
2019-04-27T10:27:30.620Z,10.10
2019-04-27T10:30:00.901Z,13.80
2019-04-27T10:32:31.401Z,9.07
2019-04-27T10:35:01.886Z,15.17
2019-04-27T10:37:32.529Z,9.87
2019-04-27T10:40:03.089Z,12.27
2019-04-27T10:42:33.689Z,11.17
2019-04-27T10:45:06.413Z,9.13
2019-04-27T10:47:37.141Z,12.80
2019-04-27T10:50:08.022Z,10.17
2019-04-27T10:52:38.477Z,12.50
2019-04-27T10:55:09.033Z,8.93
2019-04-27T10:57:39.437Z,11.17
2019-04-27T11:00:12.193Z,13.40
2019-04-27T11:02:42.576Z,10.57
2019-04-27T11:05:19.049Z,16.73
2019-04-27T11:07:49.906Z,12.17
2019-04-27T11:10:20.445Z,13.20
2019-04-27T11:12:50.789Z,13.70
2019-04-27T11:15:22.006Z,13.17
2019-04-27T11:17:53.037Z,11.53
2019-04-27T11:20:23.580Z,11.07
2019-04-27T11:23:06.574Z,14.10
2019-04-27T11:25:26.434Z,16.60
2019-04-27T11:27:57.983Z,16.47
2019-04-27T11:30:28.605Z,12.13
2019-04-27T11:32:59.338Z,13.13
2019-04-27T11:35:43.625Z,10.70
2019-04-27T11:38:13.956Z,9.90
2019-04-27T11:40:44.237Z,10.93
2019-04-27T11:43:16.092Z,11.47
2019-04-27T11:45:46.525Z,11.03
2019-04-27T11:48:17.032Z,11.90
2019-04-27T11:50:47.519Z,9.87
2019-04-27T11:53:22.631Z,26.17
2019-04-27T11:55:49.941Z,16.33
2019-04-27T11:58:20.360Z,10.87
2019-04-27T12:00:50.692Z,16.37
2019-04-27T12:03:21.147Z,9.73
2019-04-27T12:05:51.547Z,11.00
2019-04-27T12:08:22.109Z,9.53
2019-04-27T12:10:52.513Z,12.67
2019-04-27T12:13:23.017Z,10.07
2019-04-27T12:15:53.498Z,14.10
2019-04-27T12:18:24.011Z,17.10
2019-04-27T12:20:55.820Z,17.57
2019-04-27T12:23:33.694Z,17.40
2019-04-27T12:25:58.718Z,14.37
2019-04-27T12:28:33.585Z,9.23
2019-04-27T12:31:08.772Z,9.87
2019-04-27T12:33:37.993Z,11.10
2019-04-27T12:36:08.565Z,12.10
2019-04-27T12:38:39.199Z,11.70
2019-04-27T12:41:09.641Z,14.40
2019-04-27T12:43:40.198Z,9.70
2019-04-27T12:46:10.729Z,9.87
2019-04-27T12:48:41.010Z,10.07
2019-04-27T12:51:11.334Z,10.67
2019-04-27T12:53:50.658Z,10.80
2019-04-27T12:56:20.244Z,11.80
2019-04-27T12:58:58.313Z,10.30
2019-04-27T13:01:29.917Z,11.97
2019-04-27T13:04:00.210Z,11.27
2019-04-27T13:06:30.560Z,9.77
2019-04-27T13:09:01.029Z,10.77
2019-04-27T13:11:31.709Z,10.67
2019-04-27T13:14:02.017Z,11.23
2019-04-27T13:16:32.409Z,9.57
2019-04-27T13:19:02.741Z,10.67
2019-04-27T13:21:33.045Z,11.37
2019-04-27T13:24:06.315Z,13.20
2019-04-27T13:26:36.218Z,9.10
2019-04-27T13:29:07.832Z,9.47
2019-04-27T13:31:38.107Z,8.57
2019-04-27T13:34:08.400Z,9.73
2019-04-27T13:36:38.829Z,9.30
2019-04-27T13:39:09.249Z,10.33
2019-04-27T13:41:39.677Z,11.07
2019-04-27T13:44:10.133Z,10.87
2019-04-27T13:46:58.265Z,11.70
2019-04-27T13:49:30.493Z,13.90
2019-04-27T13:52:02.465Z,14.27
2019-04-27T13:54:32.673Z,9.37
2019-04-27T13:57:03.169Z,9.43
2019-04-27T13:59:33.321Z,11.50
2019-04-27T14:02:04.656Z,7.80
2019-04-27T14:04:34.969Z,9.63
2019-04-27T14:07:05.489Z,10.20
2019-04-27T14:09:35.784Z,9.40
2019-04-27T14:12:21.214Z,14.57
2019-04-27T14:14:51.781Z,9.73
2019-04-27T14:17:22.301Z,13.13
2019-04-27T14:19:52.854Z,12.30
2019-04-27T14:22:23.283Z,9.63
2019-04-27T14:24:53.960Z,12.30
2019-04-27T14:27:26.056Z,11.53
2019-04-27T14:29:57.635Z,13.03
2019-04-27T14:32:28.755Z,10.50
2019-04-27T14:34:59.317Z,13.13
2019-04-27T14:37:29.781Z,13.73
2019-04-27T14:40:00.391Z,11.80
2019-04-27T14:42:30.781Z,10.33
2019-04-27T14:45:01.361Z,10.57
2019-04-27T14:47:31.875Z,11.97
2019-04-27T14:50:02.429Z,10.43
2019-04-27T14:52:33.045Z,8.27
2019-04-27T14:55:04.290Z,9.67
2019-04-27T14:57:34.712Z,12.23
2019-04-27T15:00:06.492Z,11.20
2019-04-27T15:02:39.122Z,10.33
2019-04-27T15:05:09.366Z,8.33
2019-04-27T15:07:39.825Z,10.27
2019-04-27T15:10:10.277Z,8.43
2019-04-27T15:12:40.789Z,9.97
2019-04-27T15:15:11.173Z,11.20
2019-04-27T15:17:41.641Z,14.10
2019-04-27T15:20:14.204Z,10.27
2019-04-27T15:22:46.134Z,14.67
2019-04-27T15:25:16.512Z,12.20
2019-04-27T15:27:50.093Z,13.47
2019-04-27T15:30:35.146Z,11.73
2019-04-27T15:33:19.485Z,9.33
2019-04-27T15:36:00.604Z,14.73
2019-04-27T15:38:32.689Z,13.93
2019-04-27T15:41:10.744Z,11.63
2019-04-27T15:43:42.968Z,10.37
2019-04-27T15:46:13.761Z,10.63
2019-04-27T15:48:44.365Z,10.53
2019-04-27T15:51:18.376Z,13.60
2019-04-27T15:53:50.836Z,13.20
2019-04-27T15:56:21.610Z,13.57
2019-04-27T15:58:51.144Z,10.87
2019-04-27T16:01:21.645Z,9.83
2019-04-27T16:03:52.200Z,12.17
2019-04-27T16:06:22.763Z,11.13
2019-04-27T16:08:53.391Z,12.07
2019-04-27T16:11:24.004Z,10.17
2019-04-27T16:13:54.421Z,14.17
2019-04-27T16:16:29.087Z,22.60
2019-04-27T16:18:57.881Z,14.53
2019-04-27T16:21:31.556Z,10.60
2019-04-27T16:24:01.421Z,10.53
2019-04-27T16:26:31.573Z,12.80
2019-04-27T16:29:02.039Z,13.87
2019-04-27T16:31:33.802Z,11.27
2019-04-27T16:34:05.041Z,12.00
2019-04-27T16:36:37.801Z,14.10
2019-04-27T16:39:09.957Z,11.80
2019-04-27T16:41:42.015Z,12.00
2019-04-27T16:44:12.484Z,11.10
2019-04-27T16:46:43.274Z,12.77
2019-04-27T16:49:15.104Z,10.30
2019-04-27T16:51:45.546Z,10.00
2019-04-27T16:54:17.571Z,10.17
2019-04-27T16:56:52.732Z,11.70
2019-04-27T16:59:39.731Z,14.03
2019-04-27T17:01:52.049Z,15.07
2019-04-27T17:04:22.516Z,9.87
2019-04-27T17:06:52.925Z,10.57
2019-04-27T17:09:23.298Z,13.27
2019-04-27T17:11:53.693Z,13.43
2019-04-27T17:14:29.179Z,11.07
2019-04-27T17:17:03.625Z,12.73
2019-04-27T17:19:35.812Z,15.30
2019-04-27T17:22:05.881Z,10.90
2019-04-27T17:24:43.821Z,10.80
2019-04-27T17:27:11.666Z,9.13
2019-04-27T17:29:41.401Z,9.73
2019-04-27T17:32:13.698Z,12.07
2019-04-27T17:34:44.113Z,11.53
2019-04-27T17:37:14.321Z,9.90
2019-04-27T17:39:44.748Z,15.23
2019-04-27T17:42:15.185Z,9.87
2019-04-27T17:44:45.716Z,9.47
2019-04-27T17:47:20.045Z,11.53
2019-04-27T17:49:48.811Z,13.20
2019-04-27T17:52:19.225Z,11.80
2019-04-27T17:54:49.721Z,11.40
2019-04-27T17:57:22.263Z,8.97
2019-04-27T17:59:59.046Z,25.07
2019-04-27T18:02:24.354Z,30.90
2019-04-27T18:04:54.865Z,28.03
2019-04-27T18:07:25.453Z,11.30
2019-04-27T18:09:55.901Z,12.17
2019-04-27T18:12:28.196Z,14.50
2019-04-27T18:14:58.362Z,12.57
2019-04-27T18:17:29.885Z,14.13
2019-04-27T18:20:04.918Z,9.97
2019-04-27T18:22:39.611Z,10.53
2019-04-27T18:25:09.977Z,12.63
2019-04-27T18:27:44.679Z,9.93
2019-04-27T18:30:18.910Z,11.67
2019-04-27T18:32:49.658Z,11.27
2019-04-27T18:35:26.510Z,14.63
2019-04-27T18:37:53.508Z,11.33
2019-04-27T18:40:31.899Z,12.47
2019-04-27T18:42:56.553Z,10.20
2019-04-27T18:45:28.395Z,9.93
2019-04-27T18:48:00.288Z,13.33
2019-04-27T18:50:32.753Z,10.87
2019-04-27T18:53:10.821Z,9.87
2019-04-27T18:55:41.105Z,14.83
2019-04-27T18:58:11.517Z,10.87
2019-04-27T19:00:41.996Z,10.43
2019-04-27T19:03:12.573Z,12.30
2019-04-27T19:05:43.133Z,12.10
2019-04-27T19:08:13.440Z,10.23
2019-04-27T19:10:44.132Z,11.70
2019-04-27T19:13:14.629Z,10.20
2019-04-27T19:15:45.113Z,27.63
2019-04-27T19:18:15.545Z,35.27
2019-04-27T19:20:48.084Z,16.27
2019-04-27T19:23:18.273Z,15.70
2019-04-27T19:25:59.626Z,9.93
2019-04-27T19:28:48.489Z,10.03
2019-04-27T19:31:29.197Z,11.97
2019-04-27T19:33:59.728Z,12.40
2019-04-27T19:36:30.378Z,9.47
2019-04-27T19:39:00.918Z,10.23
2019-04-27T19:41:31.205Z,11.17
2019-04-27T19:44:01.870Z,15.43
2019-04-27T19:46:32.373Z,11.73
2019-04-27T19:49:03.009Z,14.53
2019-04-27T19:51:33.568Z,25.10
2019-04-27T19:54:04.145Z,16.97
2019-04-27T19:56:35.717Z,11.33
2019-04-27T19:59:08.951Z,9.57
2019-04-27T20:01:41.218Z,12.97
2019-04-27T20:04:13.508Z,15.23
2019-04-27T20:06:43.799Z,11.30
2019-04-27T20:09:28.137Z,10.80
2019-04-27T20:12:00.660Z,11.80
2019-04-27T20:14:32.401Z,11.37
2019-04-27T20:17:03.241Z,15.17
2019-04-27T20:19:33.545Z,11.17
2019-04-27T20:22:04.028Z,10.57
2019-04-27T20:24:34.277Z,15.67
2019-04-27T20:27:04.832Z,11.57
2019-04-27T20:29:35.061Z,12.27
2019-04-27T20:32:05.419Z,13.03
2019-04-27T20:34:35.737Z,10.80
2019-04-27T20:37:06.348Z,10.30
2019-04-27T20:39:36.716Z,12.80
2019-04-27T20:42:07.205Z,12.67
2019-04-27T20:44:37.761Z,13.37
2019-04-27T20:47:07.993Z,13.90
2019-04-27T20:49:38.257Z,12.83
2019-04-27T20:52:13.007Z,10.87
2019-04-27T20:54:43.376Z,12.57
2019-04-27T20:57:13.873Z,11.37
2019-04-27T20:59:44.373Z,12.10
2019-04-27T21:02:32.194Z,12.30
2019-04-27T21:05:21.063Z,11.03
2019-04-27T21:07:53.323Z,13.10
2019-04-27T21:10:23.900Z,10.13
2019-04-27T21:12:54.304Z,11.23
2019-04-27T21:15:24.685Z,12.63
2019-04-27T21:17:54.977Z,11.27
2019-04-27T21:20:25.321Z,11.23
2019-04-27T21:22:55.781Z,12.23
2019-04-27T21:25:26.424Z,9.87
2019-04-27T21:27:56.709Z,12.13
2019-04-27T21:30:27.449Z,11.10
2019-04-27T21:32:57.990Z,13.53
2019-04-27T21:35:28.290Z,10.00
2019-04-27T21:37:58.784Z,16.87
2019-04-27T21:40:30.692Z,11.87
2019-04-27T21:43:01.693Z,10.77
2019-04-27T21:45:32.192Z,12.90
2019-04-27T21:48:02.698Z,11.00
2019-04-27T21:50:33.117Z,10.63
2019-04-27T21:53:11.220Z,11.27
2019-04-27T21:55:42.228Z,12.00
2019-04-27T21:58:12.878Z,13.67
2019-04-27T22:00:45.012Z,12.50
2019-04-27T22:03:17.224Z,10.53
2019-04-27T22:05:47.909Z,10.03
2019-04-27T22:08:18.409Z,10.50
2019-04-27T22:10:48.620Z,10.93
2019-04-27T22:13:22.204Z,15.27
2019-04-27T22:15:51.711Z,11.33
2019-04-27T22:18:22.064Z,11.13
2019-04-27T22:20:52.372Z,11.23
2019-04-27T22:23:41.823Z,12.13
2019-04-27T22:26:12.151Z,10.67
2019-04-27T22:28:47.223Z,11.80
2019-04-27T22:31:14.897Z,11.10
2019-04-27T22:33:45.333Z,11.83
2019-04-27T22:36:16.048Z,14.33
2019-04-27T22:38:46.549Z,12.93
2019-04-27T22:41:18.481Z,11.33
2019-04-27T22:44:06.951Z,10.67
2019-04-27T22:46:41.637Z,12.53
2019-04-27T22:49:12.139Z,12.07
2019-04-27T22:51:43.109Z,11.77
2019-04-27T22:54:13.616Z,11.27
2019-04-27T22:56:45.668Z,12.13
2019-04-27T22:59:26.763Z,10.90
2019-04-27T23:01:58.789Z,12.53
2019-04-27T23:04:36.828Z,12.87
2019-04-27T23:07:07.053Z,11.23
2019-04-27T23:09:37.609Z,12.73
2019-04-27T23:12:08.412Z,10.33
2019-04-27T23:14:39.092Z,12.17
2019-04-27T23:17:11.558Z,10.60
2019-04-27T23:19:42.814Z,11.17
2019-04-27T23:22:13.064Z,11.53
2019-04-27T23:24:43.487Z,11.43
2019-04-27T23:27:15.345Z,11.50
2019-04-27T23:29:45.701Z,12.67
2019-04-27T23:32:21.447Z,11.97
2019-04-27T23:34:52.357Z,11.73
2019-04-27T23:37:22.589Z,11.23
2019-04-27T23:39:52.889Z,17.23
2019-04-27T23:42:23.385Z,11.40
2019-04-27T23:44:53.825Z,12.03
2019-04-27T23:47:24.677Z,12.13
2019-04-27T23:49:55.116Z,11.90
2019-04-27T23:52:45.353Z,14.93
2019-04-27T23:55:16.142Z,10.97
2019-04-27T23:57:46.625Z,11.77
